Time;durP1;ratioP1;P1;durP2;ratioP2;P2;SDS_P1;SDS_P2;PMS_P1;PMS_P2;Temp;Humidity;BMP_temperature;BMP_pressure;BME280_temperature;BME280_humidity;BME280_pressure;Samples;Min_cycle;Max_cycle;Signal;HPM_P1;HPM_P2
2023/09/03 00:01:01;;;;;;;8.10;6.32;;;;;;;;;;5037379;28;20057;-62
2023/09/03 00:03:27;;;;;;;9.35;6.68;;;;;;;;;;5062362;28;20045;-60
2023/09/03 00:05:54;;;;;;;9.48;5.90;;;;;;;;;;5053923;28;20053;-60
2023/09/03 00:08:21;;;;;;;9.45;6.28;;;;;;;;;;5029868;28;20085;-62
2023/09/03 00:10:49;;;;;;;6.68;5.97;;;;;;;;;;5022591;28;20086;-58
2023/09/03 00:13:15;;;;;;;11.43;5.90;;;;;;;;;;5022375;28;20062;-61
2023/09/03 00:15:42;;;;;;;8.65;6.03;;;;;;;;;;5025000;28;20054;-62
2023/09/03 00:18:11;;;;;;;7.32;6.30;;;;;;;;;;5022819;28;20058;-61
2023/09/03 00:20:39;;;;;;;7.50;5.88;;;;;;;;;;5025008;28;20129;-62
2023/09/03 00:23:06;;;;;;;6.55;5.43;;;;;;;;;;5025264;28;20140;-57
2023/09/03 00:25:36;;;;;;;7.18;6.10;;;;;;;;;;5032433;28;20597;-61
2023/09/03 00:28:03;;;;;;;7.10;6.40;;;;;;;;;;5064697;28;20053;-62
2023/09/03 00:30:29;;;;;;;11.40;5.65;;;;;;;;;;5029469;28;20050;-61
2023/09/03 00:32:56;;;;;;;7.18;5.97;;;;;;;;;;5060729;28;20052;-60
2023/09/03 00:35:22;;;;;;;8.85;6.60;;;;;;;;;;5033355;28;20136;-61
2023/09/03 00:37:49;;;;;;;8.60;5.88;;;;;;;;;;5025751;28;20342;-61
2023/09/03 00:40:15;;;;;;;9.43;6.10;;;;;;;;;;5025830;28;20464;-61
2023/09/03 00:42:41;;;;;;;17.58;8.55;;;;;;;;;;5031025;28;20061;-58
2023/09/03 00:45:08;;;;;;;9.27;6.65;;;;;;;;;;5043787;28;20412;-60
2023/09/03 00:47:35;;;;;;;8.82;6.60;;;;;;;;;;5026131;28;20058;-56
2023/09/03 00:50:03;;;;;;;6.78;6.07;;;;;;;;;;5043865;28;20112;-60
2023/09/03 00:52:30;;;;;;;9.68;7.00;;;;;;;;;;5041192;28;20531;-61
2023/09/03 00:54:57;;;;;;;9.50;6.57;;;;;;;;;;5025149;28;20057;-59
2023/09/03 00:57:23;;;;;;;7.68;6.45;;;;;;;;;;5037586;28;20057;-59
2023/09/03 00:59:50;;;;;;;11.30;6.95;;;;;;;;;;5054658;28;20140;-58
2023/09/03 01:02:17;;;;;;;9.82;6.72;;;;;;;;;;5044158;28;20522;-61
2023/09/03 01:04:43;;;;;;;8.82;6.60;;;;;;;;;;5041035;28;20059;-61
2023/09/03 01:07:11;;;;;;;7.97;6.85;;;;;;;;;;5044726;28;20508;-59
2023/09/03 01:09:38;;;;;;;8.73;6.72;;;;;;;;;;5045051;28;20135;-60
2023/09/03 01:12:10;;;;;;;8.50;7.18;;;;;;;;;;5039979;28;20082;-58
2023/09/03 01:14:52;;;;;;;9.73;6.88;;;;;;;;;;5025148;28;20481;-61
2023/09/03 01:17:27;;;;;;;8.27;6.93;;;;;;;;;;5025725;28;20057;-61
2023/09/03 01:20:10;;;;;;;11.77;7.63;;;;;;;;;;5034381;28;20691;-60
2023/09/03 01:22:50;;;;;;;11.63;7.10;;;;;;;;;;5038316;28;20057;-60
2023/09/03 01:25:31;;;;;;;11.38;6.45;;;;;;;;;;5043033;28;20054;-61
2023/09/03 01:28:16;;;;;;;7.22;6.32;;;;;;;;;;5044193;28;20050;-61
2023/09/03 01:30:42;;;;;;;8.85;6.18;;;;;;;;;;5043833;28;20061;-61
2023/09/03 01:33:09;;;;;;;8.68;6.78;;;;;;;;;;5043437;28;20053;-61
2023/09/03 01:35:37;;;;;;;8.20;6.43;;;;;;;;;;5044484;28;20065;-61
2023/09/03 01:38:04;;;;;;;9.27;7.00;;;;;;;;;;5044817;28;20061;-61
2023/09/03 01:40:31;;;;;;;10.95;6.70;;;;;;;;;;5036605;28;20119;-56
2023/09/03 01:42:57;;;;;;;11.82;6.40;;;;;;;;;;5032651;28;20112;-59
2023/09/03 01:45:28;;;;;;;9.05;6.55;;;;;;;;;;5025375;28;20084;-62
2023/09/03 01:48:01;;;;;;;9.77;7.43;;;;;;;;;;5024932;28;20050;-62
2023/09/03 01:50:28;;;;;;;9.18;7.22;;;;;;;;;;5044281;28;20057;-62
2023/09/03 01:53:17;;;;;;;9.18;7.70;;;;;;;;;;5053145;28;20057;-62
2023/09/03 01:55:47;;;;;;;6.97;6.28;;;;;;;;;;5044695;28;20132;-62
2023/09/03 01:58:14;;;;;;;8.07;6.47;;;;;;;;;;5043851;28;20058;-61
2023/09/03 02:00:41;;;;;;;8.70;7.03;;;;;;;;;;5043035;28;20053;-62
2023/09/03 02:03:09;;;;;;;8.25;7.07;;;;;;;;;;5032778;28;20050;-62
2023/09/03 02:05:36;;;;;;;11.88;7.20;;;;;;;;;;5054549;28;20059;-62
2023/09/03 02:08:02;;;;;;;8.82;7.35;;;;;;;;;;5032082;28;20054;-62
2023/09/03 02:10:29;;;;;;;7.38;6.60;;;;;;;;;;5025556;28;20057;-62
2023/09/03 02:12:56;;;;;;;10.15;7.20;;;;;;;;;;5023944;28;20058;-62
2023/09/03 02:15:22;;;;;;;10.00;6.85;;;;;;;;;;5028681;28;20143;-61
2023/09/03 02:17:49;;;;;;;7.85;7.05;;;;;;;;;;5043725;28;20061;-61
2023/09/03 02:20:16;;;;;;;10.90;6.80;;;;;;;;;;5052886;28;20053;-59
2023/09/03 02:22:42;;;;;;;10.45;7.55;;;;;;;;;;5044585;28;20054;-62
2023/09/03 02:25:09;;;;;;;8.15;6.57;;;;;;;;;;5027664;28;20053;-61
2023/09/03 02:27:36;;;;;;;9.68;6.90;;;;;;;;;;5024130;28;20050;-63
2023/09/03 02:30:04;;;;;;;11.48;6.80;;;;;;;;;;5025227;28;20438;-61
2023/09/03 02:32:30;;;;;;;9.65;7.25;;;;;;;;;;5043216;28;20057;-62
2023/09/03 02:34:57;;;;;;;13.85;7.65;;;;;;;;;;5058278;28;20069;-59
2023/09/03 02:37:23;;;;;;;8.95;7.38;;;;;;;;;;5064086;28;20160;-62
2023/09/03 02:39:50;;;;;;;9.95;6.70;;;;;;;;;;5044277;28;20132;-62
2023/09/03 02:42:16;;;;;;;9.95;7.35;;;;;;;;;;5022833;28;20053;-61
2023/09/03 02:44:43;;;;;;;9.95;7.47;;;;;;;;;;5023714;28;20112;-62
2023/09/03 02:47:09;;;;;;;8.00;6.97;;;;;;;;;;5024083;28;20120;-62
2023/09/03 02:49:36;;;;;;;8.20;7.20;;;;;;;;;;5051729;28;20061;-61
2023/09/03 02:52:02;;;;;;;8.65;6.85;;;;;;;;;;5027312;28;20054;-60
2023/09/03 02:54:29;;;;;;;11.10;7.00;;;;;;;;;;5024166;28;20105;-62
2023/09/03 02:56:55;;;;;;;9.48;7.00;;;;;;;;;;5023293;28;20528;-62
2023/09/03 02:59:22;;;;;;;9.75;6.85;;;;;;;;;;5033377;28;20150;-60
2023/09/03 03:01:48;;;;;;;10.38;7.72;;;;;;;;;;5027636;28;20057;-62
2023/09/03 03:04:15;;;;;;;9.50;7.93;;;;;;;;;;5054467;28;20059;-62
2023/09/03 03:06:41;;;;;;;13.10;7.68;;;;;;;;;;5054473;28;20104;-61
2023/09/03 03:09:08;;;;;;;11.77;7.85;;;;;;;;;;5043420;28;20060;-60
2023/09/03 03:11:34;;;;;;;8.93;6.47;;;;;;;;;;5041389;28;20053;-59
2023/09/03 03:14:01;;;;;;;10.52;7.32;;;;;;;;;;5034006;28;20064;-61
2023/09/03 03:16:27;;;;;;;7.25;6.47;;;;;;;;;;5026898;28;20081;-58
2023/09/03 03:18:54;;;;;;;10.27;6.65;;;;;;;;;;5063362;28;20056;-62
2023/09/03 03:21:22;;;;;;;10.07;7.00;;;;;;;;;;5031810;28;20054;-61
2023/09/03 03:23:50;;;;;;;8.48;6.90;;;;;;;;;;5023325;28;20497;-62
2023/09/03 03:26:17;;;;;;;8.95;6.93;;;;;;;;;;5022524;28;20566;-60
2023/09/03 03:28:44;;;;;;;11.65;7.50;;;;;;;;;;5023755;28;20154;-60
2023/09/03 03:31:11;;;;;;;10.88;7.25;;;;;;;;;;5033757;28;20438;-61
2023/09/03 03:33:39;;;;;;;9.65;7.55;;;;;;;;;;5045476;28;20140;-62
2023/09/03 03:36:06;;;;;;;10.75;7.10;;;;;;;;;;5023673;28;20054;-60
2023/09/03 03:38:32;;;;;;;8.38;7.35;;;;;;;;;;5024679;28;20144;-61
2023/09/03 03:41:07;;;;;;;12.60;7.53;;;;;;;;;;5042732;28;20056;-61
2023/09/03 03:43:34;;;;;;;9.65;6.47;;;;;;;;;;5047258;28;20057;-62
2023/09/03 03:46:00;;;;;;;9.40;6.78;;;;;;;;;;5036035;28;20436;-62
2023/09/03 03:48:27;;;;;;;8.38;6.85;;;;;;;;;;5023183;28;20050;-60
2023/09/03 03:50:54;;;;;;;10.95;7.38;;;;;;;;;;5023148;28;20513;-61
2023/09/03 03:53:21;;;;;;;8.45;6.53;;;;;;;;;;5021591;28;20145;-61
2023/09/03 03:55:47;;;;;;;10.07;6.75;;;;;;;;;;5033666;28;20065;-61
2023/09/03 03:58:14;;;;;;;9.35;8.05;;;;;;;;;;5045883;28;20089;-61
2023/09/03 04:00:41;;;;;;;10.88;7.93;;;;;;;;;;5052132;28;20050;-60
2023/09/03 04:03:07;;;;;;;7.82;6.82;;;;;;;;;;5042317;28;20518;-61
2023/09/03 04:05:34;;;;;;;9.57;6.95;;;;;;;;;;5033476;28;20185;-60
2023/09/03 04:08:00;;;;;;;8.80;7.07;;;;;;;;;;5035862;28;20139;-61
2023/09/03 04:10:27;;;;;;;11.35;6.85;;;;;;;;;;5042749;28;20150;-61
2023/09/03 04:12:53;;;;;;;10.13;6.65;;;;;;;;;;5046640;28;20097;-62
2023/09/03 04:15:20;;;;;;;9.70;7.63;;;;;;;;;;5054187;28;20053;-61
2023/09/03 04:17:46;;;;;;;10.23;6.45;;;;;;;;;;5042677;28;20054;-60
2023/09/03 04:20:15;;;;;;;9.20;7.25;;;;;;;;;;5042109;28;20056;-61
2023/09/03 04:22:42;;;;;;;9.07;7.07;;;;;;;;;;5040476;28;20053;-61
2023/09/03 04:25:08;;;;;;;8.82;7.22;;;;;;;;;;5037683;28;20204;-58
2023/09/03 04:27:35;;;;;;;8.85;7.90;;;;;;;;;;5031943;28;20417;-60
2023/09/03 04:30:03;;;;;;;11.30;7.22;;;;;;;;;;5042929;28;20504;-61
2023/09/03 04:32:29;;;;;;;8.38;6.80;;;;;;;;;;5041874;28;20053;-61
2023/09/03 04:34:56;;;;;;;9.55;7.13;;;;;;;;;;5042256;28;20050;-59
2023/09/03 04:37:22;;;;;;;10.18;6.90;;;;;;;;;;5046021;28;20057;-61
2023/09/03 04:39:49;;;;;;;8.90;7.22;;;;;;;;;;5058844;28;20590;-62
2023/09/03 04:42:15;;;;;;;8.77;6.85;;;;;;;;;;5054918;28;20052;-62
2023/09/03 04:44:42;;;;;;;9.23;7.47;;;;;;;;;;5054069;28;20112;-60
2023/09/03 04:47:09;;;;;;;11.48;7.30;;;;;;;;;;5062114;28;20053;-60
2023/09/03 04:49:35;;;;;;;8.15;6.88;;;;;;;;;;5061380;28;20131;-56
2023/09/03 04:52:01;;;;;;;9.45;6.80;;;;;;;;;;5055132;28;20052;-62
2023/09/03 04:54:28;;;;;;;8.10;6.75;;;;;;;;;;5062498;28;20143;-61
2023/09/03 04:56:54;;;;;;;9.00;7.13;;;;;;;;;;5050681;28;20618;-62
2023/09/03 04:59:21;;;;;;;10.35;7.10;;;;;;;;;;5041897;28;20081;-59
2023/09/03 05:01:48;;;;;;;11.18;6.82;;;;;;;;;;5033484;28;20065;-60
2023/09/03 05:04:14;;;;;;;8.48;7.10;;;;;;;;;;5039984;28;20054;-62
2023/09/03 05:06:40;;;;;;;8.95;7.00;;;;;;;;;;5063439;28;20092;-62
2023/09/03 05:09:08;;;;;;;13.95;7.50;;;;;;;;;;5064847;28;20053;-58
2023/09/03 05:11:36;;;;;;;9.00;7.05;;;;;;;;;;5058714;28;20053;-58
2023/09/03 05:14:03;;;;;;;11.60;7.97;;;;;;;;;;5027198;28;20105;-62
2023/09/03 05:16:29;;;;;;;9.45;7.00;;;;;;;;;;5025861;28;20057;-61
2023/09/03 05:18:57;;;;;;;9.95;7.22;;;;;;;;;;5052418;28;20592;-59
2023/09/03 05:21:24;;;;;;;9.48;7.07;;;;;;;;;;5059527;28;20057;-61
2023/09/03 05:23:50;;;;;;;10.20;7.43;;;;;;;;;;5033310;28;20085;-58
2023/09/03 05:26:17;;;;;;;11.70;7.72;;;;;;;;;;5024561;28;20572;-62
2023/09/03 05:28:43;;;;;;;10.63;7.97;;;;;;;;;;5023775;28;20447;-61
2023/09/03 05:31:10;;;;;;;8.52;7.30;;;;;;;;;;5023714;28;20050;-61
2023/09/03 05:33:37;;;;;;;8.80;7.55;;;;;;;;;;5024295;28;20077;-61
2023/09/03 05:36:03;;;;;;;10.82;8.27;;;;;;;;;;5025911;28;20053;-61
2023/09/03 05:38:30;;;;;;;16.20;7.60;;;;;;;;;;5038780;28;20151;-60
2023/09/03 05:40:58;;;;;;;11.57;7.43;;;;;;;;;;5024560;28;20054;-58
2023/09/03 05:43:25;;;;;;;9.40;7.25;;;;;;;;;;5024822;28;20104;-59
2023/09/03 05:45:52;;;;;;;11.27;8.43;;;;;;;;;;5036203;28;20054;-61
2023/09/03 05:48:18;;;;;;;12.10;8.23;;;;;;;;;;5049358;28;20145;-59
2023/09/03 05:50:45;;;;;;;12.95;7.70;;;;;;;;;;5043960;28;20108;-62
2023/09/03 05:53:12;;;;;;;11.35;7.63;;;;;;;;;;5043968;28;20050;-61
2023/09/03 05:55:39;;;;;;;10.07;7.90;;;;;;;;;;5054869;28;20056;-60
2023/09/03 05:58:06;;;;;;;10.98;8.40;;;;;;;;;;5055281;28;20063;-59
2023/09/03 06:00:32;;;;;;;10.75;8.70;;;;;;;;;;5051038;28;20150;-59
2023/09/03 06:02:58;;;;;;;13.35;9.40;;;;;;;;;;5046339;28;20081;-61
2023/09/03 06:05:26;;;;;;;10.88;8.90;;;;;;;;;;5043866;28;20208;-59
2023/09/03 06:07:52;;;;;;;12.75;8.88;;;;;;;;;;5043555;28;20140;-58
2023/09/03 06:10:19;;;;;;;10.80;8.60;;;;;;;;;;5055756;28;20053;-61
2023/09/03 06:12:45;;;;;;;11.80;8.75;;;;;;;;;;5053967;28;20078;-62
2023/09/03 06:15:12;;;;;;;13.90;9.23;;;;;;;;;;5008701;28;20655;-62
2023/09/03 06:17:38;;;;;;;12.48;8.55;;;;;;;;;;5027853;28;20145;-56
2023/09/03 06:20:05;;;;;;;12.45;9.07;;;;;;;;;;5028335;28;20068;-59
2023/09/03 06:22:31;;;;;;;12.82;9.43;;;;;;;;;;5043161;28;20061;-61
2023/09/03 06:24:58;;;;;;;12.63;9.68;;;;;;;;;;5040220;28;20536;-61
2023/09/03 06:27:24;;;;;;;19.10;9.82;;;;;;;;;;5041742;28;20080;-62
2023/09/03 06:29:51;;;;;;;14.02;9.88;;;;;;;;;;5042985;28;20077;-62
2023/09/03 06:32:17;;;;;;;13.45;10.10;;;;;;;;;;5034404;28;20050;-59
2023/09/03 06:34:44;;;;;;;13.57;9.38;;;;;;;;;;5026420;28;20112;-59
2023/09/03 06:37:10;;;;;;;13.25;10.00;;;;;;;;;;5039904;28;20495;-61
2023/09/03 06:39:37;;;;;;;15.30;9.57;;;;;;;;;;5046318;28;20080;-59
2023/09/03 06:42:03;;;;;;;13.10;10.10;;;;;;;;;;5055307;28;20053;-59
2023/09/03 06:44:30;;;;;;;14.02;10.15;;;;;;;;;;5045946;28;20155;-58
2023/09/03 06:46:57;;;;;;;15.30;10.50;;;;;;;;;;5042427;28;20054;-61
2023/09/03 06:49:23;;;;;;;16.10;10.30;;;;;;;;;;5041002;28;20057;-61
2023/09/03 06:51:51;;;;;;;14.00;10.52;;;;;;;;;;5030946;28;20050;-59
2023/09/03 06:54:17;;;;;;;11.45;9.32;;;;;;;;;;5048051;28;20064;-59
2023/09/03 06:56:43;;;;;;;14.07;10.55;;;;;;;;;;5042825;28;20111;-62
2023/09/03 06:59:10;;;;;;;18.10;11.45;;;;;;;;;;5042562;28;20050;-61
2023/09/03 07:01:42;;;;;;;14.88;11.00;;;;;;;;;;5041911;28;20127;-60
2023/09/03 07:04:09;;;;;;;17.42;11.05;;;;;;;;;;5042319;28;20080;-60
2023/09/03 07:06:35;;;;;;;16.92;11.13;;;;;;;;;;5042788;28;20045;-55
2023/09/03 07:09:02;;;;;;;15.77;11.07;;;;;;;;;;5054071;28;20053;-60
2023/09/03 07:11:28;;;;;;;15.90;11.10;;;;;;;;;;5048574;28;20050;-62
2023/09/03 07:13:55;;;;;;;15.98;11.25;;;;;;;;;;5042047;28;20722;-61
2023/09/03 07:16:21;;;;;;;14.52;10.43;;;;;;;;;;5024037;28;20049;-58
2023/09/03 07:18:48;;;;;;;13.00;9.80;;;;;;;;;;5022965;28;20046;-58
2023/09/03 07:21:14;;;;;;;16.83;11.05;;;;;;;;;;5037930;28;20100;-62
2023/09/03 07:23:41;;;;;;;16.73;11.45;;;;;;;;;;5041852;28;20060;-61
2023/09/03 07:26:10;;;;;;;13.43;10.82;;;;;;;;;;5040430;28;20119;-60
2023/09/03 07:28:37;;;;;;;16.42;10.82;;;;;;;;;;5040947;28;20139;-61
2023/09/03 07:31:04;;;;;;;17.88;12.23;;;;;;;;;;5036475;28;20271;-62
2023/09/03 07:33:32;;;;;;;15.60;11.15;;;;;;;;;;5042699;28;20524;-61
2023/09/03 07:35:59;;;;;;;18.88;12.13;;;;;;;;;;5038556;28;20531;-61
2023/09/03 07:38:27;;;;;;;16.13;11.73;;;;;;;;;;5039740;28;20412;-61
2023/09/03 07:40:54;;;;;;;15.25;11.43;;;;;;;;;;5034701;28;20054;-61
2023/09/03 07:43:20;;;;;;;18.58;11.90;;;;;;;;;;5040538;28;20726;-61
2023/09/03 07:45:48;;;;;;;14.48;10.60;;;;;;;;;;5039012;28;20123;-62
2023/09/03 07:48:14;;;;;;;15.32;11.98;;;;;;;;;;5041131;28;20058;-60
2023/09/03 07:50:41;;;;;;;17.27;10.82;;;;;;;;;;5040486;28;20103;-60
2023/09/03 07:53:07;;;;;;;15.02;11.50;;;;;;;;;;5052232;28;20170;-60
2023/09/03 07:55:33;;;;;;;15.15;10.73;;;;;;;;;;5042368;28;20077;-60
2023/09/03 07:58:00;;;;;;;15.45;10.50;;;;;;;;;;5042995;28;20057;-60
2023/09/03 08:00:27;;;;;;;17.27;11.07;;;;;;;;;;5042110;28;20049;-59
2023/09/03 08:02:54;;;;;;;15.07;11.25;;;;;;;;;;5037202;28;20053;-62
2023/09/03 08:05:20;;;;;;;16.35;11.55;;;;;;;;;;5042695;28;20049;-59
2023/09/03 08:07:47;;;;;;;19.98;12.13;;;;;;;;;;5029312;28;20064;-60
2023/09/03 08:10:13;;;;;;;15.38;11.20;;;;;;;;;;5036841;28;20064;-62
2023/09/03 08:12:40;;;;;;;16.88;12.55;;;;;;;;;;5043312;28;20060;-62
2023/09/03 08:15:07;;;;;;;15.93;12.13;;;;;;;;;;5040858;28;20060;-58
2023/09/03 08:17:33;;;;;;;17.70;11.60;;;;;;;;;;5043431;28;20145;-60
2023/09/03 08:20:00;;;;;;;19.40;12.15;;;;;;;;;;5039523;28;20060;-62
2023/09/03 08:22:30;;;;;;;19.45;12.15;;;;;;;;;;5042529;28;20050;-61
2023/09/03 08:24:56;;;;;;;15.23;11.65;;;;;;;;;;5039687;28;20207;-61
2023/09/03 08:27:23;;;;;;;19.40;12.30;;;;;;;;;;5040670;28;20065;-61
2023/09/03 08:29:49;;;;;;;19.40;12.73;;;;;;;;;;5034882;28;20508;-60
2023/09/03 08:32:16;;;;;;;17.77;12.18;;;;;;;;;;5038802;28;20089;-62
2023/09/03 08:34:42;;;;;;;16.77;11.88;;;;;;;;;;5038078;28;20089;-58
2023/09/03 08:37:09;;;;;;;15.70;11.15;;;;;;;;;;5033548;28;20148;-62
2023/09/03 08:39:37;;;;;;;16.35;11.00;;;;;;;;;;5040273;28;20056;-59
2023/09/03 08:42:04;;;;;;;16.40;11.32;;;;;;;;;;5040658;28;20063;-61
2023/09/03 08:44:48;;;;;;;13.07;9.93;;;;;;;;;;5031284;28;20116;-62
2023/09/03 08:47:16;;;;;;;12.25;9.35;;;;;;;;;;5036277;28;20057;-60
2023/09/03 08:49:44;;;;;;;14.25;9.20;;;;;;;;;;5039949;28;20057;-60
2023/09/03 08:52:11;;;;;;;12.40;9.15;;;;;;;;;;5037179;28;20063;-61
2023/09/03 08:54:37;;;;;;;13.32;9.13;;;;;;;;;;5036659;28;20105;-61
2023/09/03 08:57:08;;;;;;;14.82;9.07;;;;;;;;;;5039143;28;20057;-58
2023/09/03 08:59:35;;;;;;;12.80;8.15;;;;;;;;;;5033366;28;20497;-59
2023/09/03 09:02:02;;;;;;;12.77;7.97;;;;;;;;;;5040559;28;20528;-60
2023/09/03 09:04:29;;;;;;;11.25;8.70;;;;;;;;;;5036167;28;20061;-62
2023/09/03 09:06:57;;;;;;;10.25;6.18;;;;;;;;;;5040882;28;20141;-61
2023/09/03 09:09:25;;;;;;;8.80;7.13;;;;;;;;;;5026508;28;20517;-61
2023/09/03 09:12:18;;;;;;;11.68;7.20;;;;;;;;;;5033628;28;20516;-61
2023/09/03 09:14:52;;;;;;;10.13;6.32;;;;;;;;;;5040625;28;20680;-61
2023/09/03 09:17:18;;;;;;;11.02;5.78;;;;;;;;;;5036416;28;20060;-62
2023/09/03 09:19:44;;;;;;;7.75;5.40;;;;;;;;;;5043089;28;20058;-61
2023/09/03 09:22:11;;;;;;;6.25;5.20;;;;;;;;;;5036349;28;20520;-58
2023/09/03 09:24:41;;;;;;;8.38;6.57;;;;;;;;;;5049766;28;20053;-61
2023/09/03 09:27:18;;;;;;;6.63;5.78;;;;;;;;;;5037209;28;20057;-61
2023/09/03 09:29:45;;;;;;;8.95;6.43;;;;;;;;;;5045094;28;20605;-61
2023/09/03 09:32:18;;;;;;;6.65;4.95;;;;;;;;;;5043142;28;20065;-61
2023/09/03 09:34:45;;;;;;;6.28;5.22;;;;;;;;;;5043142;28;20057;-58
2023/09/03 09:37:13;;;;;;;10.30;6.00;;;;;;;;;;5042408;28;20137;-61
2023/09/03 09:39:46;;;;;;;7.20;6.15;;;;;;;;;;5042632;28;20123;-61
2023/09/03 09:42:13;;;;;;;9.35;6.75;;;;;;;;;;5043827;28;20456;-61
2023/09/03 09:44:54;;;;;;;6.18;5.57;;;;;;;;;;5042685;28;20116;-59
2023/09/03 09:47:21;;;;;;;7.45;6.03;;;;;;;;;;5042525;28;20219;-59
2023/09/03 09:49:48;;;;;;;5.85;4.70;;;;;;;;;;5043210;28;20141;-61
2023/09/03 09:52:15;;;;;;;7.20;5.28;;;;;;;;;;5041187;28;20104;-62
2023/09/03 09:54:41;;;;;;;5.90;5.05;;;;;;;;;;5024391;28;20058;-61
2023/09/03 09:57:09;;;;;;;8.18;5.22;;;;;;;;;;5037647;28;20061;-61
2023/09/03 09:59:35;;;;;;;7.45;4.60;;;;;;;;;;5050843;28;20397;-60
2023/09/03 10:02:15;;;;;;;6.10;4.22;;;;;;;;;;5041689;28;20057;-58
2023/09/03 10:04:45;;;;;;;4.93;3.58;;;;;;;;;;5026391;28;20128;-61
2023/09/03 10:07:12;;;;;;;5.90;3.80;;;;;;;;;;5027101;28;20053;-60
2023/09/03 10:09:39;;;;;;;4.30;3.72;;;;;;;;;;5026613;28;20126;-62
2023/09/03 10:12:06;;;;;;;4.70;3.30;;;;;;;;;;5033622;28;20595;-59
2023/09/03 10:14:33;;;;;;;4.57;2.78;;;;;;;;;;5034917;28;20085;-62
2023/09/03 10:17:00;;;;;;;4.63;2.92;;;;;;;;;;5038468;28;20054;-62
2023/09/03 10:19:27;;;;;;;3.63;2.88;;;;;;;;;;5043913;28;20057;-60
2023/09/03 10:21:55;;;;;;;4.07;2.55;;;;;;;;;;5042599;28;20075;-61
2023/09/03 10:24:25;;;;;;;5.00;2.80;;;;;;;;;;5043320;28;20050;-57
2023/09/03 10:27:02;;;;;;;2.10;1.83;;;;;;;;;;5041168;28;20064;-61
2023/09/03 10:29:30;;;;;;;2.53;2.00;;;;;;;;;;5036714;28;20173;-59
2023/09/03 10:31:58;;;;;;;3.20;1.67;;;;;;;;;;5040018;28;21148;-62
2023/09/03 10:34:25;;;;;;;1.42;1.30;;;;;;;;;;5042948;28;20520;-62
2023/09/03 10:37:07;;;;;;;1.50;1.20;;;;;;;;;;5042872;28;21059;-62
2023/09/03 10:39:35;;;;;;;1.40;1.30;;;;;;;;;;5041970;28;20084;-61
2023/09/03 10:42:20;;;;;;;2.45;1.10;;;;;;;;;;5037355;28;20057;-62
2023/09/03 10:44:50;;;;;;;3.53;1.83;;;;;;;;;;5039994;28;20339;-62
2023/09/03 10:47:18;;;;;;;2.97;2.10;;;;;;;;;;5038954;28;20054;-62
2023/09/03 10:49:45;;;;;;;3.20;2.40;;;;;;;;;;5038895;28;20290;-59
2023/09/03 10:52:34;;;;;;;7.85;2.95;;;;;;;;;;5036468;28;20053;-62
2023/09/03 10:55:20;;;;;;;4.20;1.90;;;;;;;;;;5029703;28;20064;-63
2023/09/03 10:57:48;;;;;;;4.05;1.88;;;;;;;;;;5038794;28;20350;-59
2023/09/03 11:00:20;;;;;;;3.83;2.10;;;;;;;;;;5029115;28;20046;-60
2023/09/03 11:02:47;;;;;;;3.65;2.25;;;;;;;;;;5047584;28;20087;-61
2023/09/03 11:05:20;;;;;;;3.08;2.50;;;;;;;;;;5051993;28;20064;-60
2023/09/03 11:07:49;;;;;;;3.30;2.08;;;;;;;;;;5036571;28;20081;-60
2023/09/03 11:10:23;;;;;;;2.25;2.05;;;;;;;;;;5037440;28;20045;-61
2023/09/03 11:12:50;;;;;;;2.35;1.83;;;;;;;;;;5032113;28;20547;-61
2023/09/03 11:15:17;;;;;;;3.22;1.85;;;;;;;;;;5037434;28;20940;-59
2023/09/03 11:17:50;;;;;;;3.70;2.15;;;;;;;;;;5037651;28;20065;-60
2023/09/03 11:20:35;;;;;;;3.25;2.13;;;;;;;;;;5030154;28;20050;-60
2023/09/03 11:23:17;;;;;;;2.30;1.70;;;;;;;;;;5026253;28;20057;-60
2023/09/03 11:25:43;;;;;;;3.20;2.25;;;;;;;;;;5029616;28;20758;-61
2023/09/03 11:28:13;;;;;;;2.70;1.90;;;;;;;;;;5031655;28;20545;-61
2023/09/03 11:30:40;;;;;;;2.83;1.60;;;;;;;;;;5027282;28;20554;-61
2023/09/03 11:33:10;;;;;;;2.83;1.23;;;;;;;;;;5032697;28;20069;-61
2023/09/03 11:35:41;;;;;;;2.45;1.80;;;;;;;;;;5036001;28;20559;-61
2023/09/03 11:38:08;;;;;;;2.42;1.88;;;;;;;;;;5030307;28;20452;-60
2023/09/03 11:40:34;;;;;;;2.60;1.80;;;;;;;;;;5032457;28;20132;-61
2023/09/03 11:43:01;;;;;;;2.70;2.03;;;;;;;;;;5033886;28;20148;-60
2023/09/03 11:45:31;;;;;;;3.95;1.95;;;;;;;;;;5026742;28;20082;-59
2023/09/03 11:47:58;;;;;;;2.20;1.40;;;;;;;;;;5040113;28;20555;-61
2023/09/03 11:50:24;;;;;;;2.20;1.65;;;;;;;;;;5031340;28;20085;-61
2023/09/03 11:52:55;;;;;;;2.97;1.60;;;;;;;;;;5041240;28;20075;-61
2023/09/03 11:55:26;;;;;;;1.75;1.40;;;;;;;;;;5040381;28;20068;-62
2023/09/03 11:57:53;;;;;;;2.63;1.67;;;;;;;;;;5041794;28;20137;-60
2023/09/03 12:00:20;;;;;;;1.95;1.70;;;;;;;;;;5037312;28;20127;-60
2023/09/03 12:02:46;;;;;;;2.22;1.63;;;;;;;;;;5024208;28;20058;-61
2023/09/03 12:05:13;;;;;;;1.55;1.38;;;;;;;;;;5024828;28;20128;-60
2023/09/03 12:07:40;;;;;;;3.50;1.70;;;;;;;;;;5030273;28;20468;-61
2023/09/03 12:10:07;;;;;;;1.48;1.38;;;;;;;;;;5031671;28;20065;-61
2023/09/03 12:12:34;;;;;;;1.63;1.50;;;;;;;;;;5032638;28;20100;-60
2023/09/03 12:15:00;;;;;;;1.95;1.25;;;;;;;;;;5046313;28;20079;-60
2023/09/03 12:17:28;;;;;;;1.60;1.48;;;;;;;;;;5036444;28;20179;-59
2023/09/03 12:19:55;;;;;;;3.72;1.40;;;;;;;;;;5032064;28;20741;-61
2023/09/03 12:22:22;;;;;;;1.40;1.25;;;;;;;;;;5037292;28;20140;-58
2023/09/03 12:24:49;;;;;;;1.40;1.30;;;;;;;;;;5040982;28;20152;-61
2023/09/03 12:27:15;;;;;;;2.25;1.35;;;;;;;;;;5041820;28;20448;-61
2023/09/03 12:29:42;;;;;;;2.33;1.20;;;;;;;;;;5043917;28;20518;-61
2023/09/03 12:32:30;;;;;;;1.73;1.00;;;;;;;;;;5038263;28;20057;-60
2023/09/03 12:34:57;;;;;;;2.13;1.00;;;;;;;;;;5043588;28;20065;-62
2023/09/03 12:37:24;;;;;;;1.73;1.10;;;;;;;;;;5033696;28;20053;-61
2023/09/03 12:39:50;;;;;;;1.35;0.95;;;;;;;;;;5046238;28;20141;-63
2023/09/03 12:42:18;;;;;;;1.55;1.00;;;;;;;;;;5044369;28;20057;-61
2023/09/03 12:44:45;;;;;;;1.17;0.90;;;;;;;;;;5043909;28;20477;-62
2023/09/03 12:47:11;;;;;;;4.05;1.30;;;;;;;;;;5036454;28;20056;-62
2023/09/03 12:49:37;;;;;;;1.98;1.23;;;;;;;;;;5043618;28;20065;-63
2023/09/03 12:52:04;;;;;;;1.73;1.30;;;;;;;;;;5045876;28;20164;-61
2023/09/03 12:54:31;;;;;;;1.63;1.23;;;;;;;;;;5040054;28;20057;-61
2023/09/03 12:56:59;;;;;;;1.77;1.10;;;;;;;;;;5037575;28;20168;-60
2023/09/03 12:59:26;;;;;;;2.47;1.08;;;;;;;;;;5034512;28;20490;-62
2023/09/03 13:01:52;;;;;;;1.63;1.20;;;;;;;;;;5042005;28;20501;-58
2023/09/03 13:04:18;;;;;;;3.90;1.30;;;;;;;;;;5045446;28;20049;-63
2023/09/03 13:06:45;;;;;;;0.88;0.88;;;;;;;;;;5043288;28;20049;-62
2023/09/03 13:09:12;;;;;;;1.08;1.02;;;;;;;;;;5041548;28;20080;-60
2023/09/03 13:11:38;;;;;;;1.70;1.60;;;;;;;;;;5050680;28;20057;-61
2023/09/03 13:14:05;;;;;;;1.55;1.40;;;;;;;;;;5043345;28;20061;-60
2023/09/03 13:16:32;;;;;;;2.80;1.30;;;;;;;;;;5043897;28;20057;-63
2023/09/03 13:18:59;;;;;;;1.60;1.40;;;;;;;;;;5078461;28;20148;-62
2023/09/03 13:21:27;;;;;;;1.67;1.05;;;;;;;;;;5036367;28;20510;-61
2023/09/03 13:23:53;;;;;;;4.20;1.02;;;;;;;;;;5044107;28;20511;-62
2023/09/03 13:26:20;;;;;;;1.80;1.35;;;;;;;;;;5043406;28;20065;-61
2023/09/03 13:28:46;;;;;;;1.65;1.17;;;;;;;;;;5034340;28;20061;-63
2023/09/03 13:31:13;;;;;;;1.48;1.15;;;;;;;;;;5036469;28;20769;-62
2023/09/03 13:33:40;;;;;;;2.05;0.90;;;;;;;;;;5032704;28;20062;-61
2023/09/03 13:36:10;;;;;;;1.83;1.30;;;;;;;;;;5042409;28;20115;-61
2023/09/03 13:38:38;;;;;;;1.48;1.10;;;;;;;;;;5038313;28;20054;-61
2023/09/03 13:41:05;;;;;;;1.35;1.13;;;;;;;;;;5043958;28;20598;-60
2023/09/03 13:43:31;;;;;;;1.05;0.98;;;;;;;;;;5044190;28;20149;-60
2023/09/03 13:45:59;;;;;;;3.15;1.70;;;;;;;;;;5032099;28;20061;-62
2023/09/03 13:48:26;;;;;;;1.50;1.33;;;;;;;;;;5040924;28;20053;-62
2023/09/03 13:50:54;;;;;;;1.23;1.13;;;;;;;;;;5041322;28;20054;-62
2023/09/03 13:53:20;;;;;;;1.15;1.05;;;;;;;;;;5046597;28;20084;-62
2023/09/03 13:55:48;;;;;;;1.00;1.00;;;;;;;;;;5038423;28;20058;-62
2023/09/03 13:58:14;;;;;;;1.00;0.90;;;;;;;;;;5037576;28;20146;-62
2023/09/03 14:00:40;;;;;;;2.33;1.20;;;;;;;;;;5032507;28;20049;-61
2023/09/03 14:03:08;;;;;;;1.00;1.00;;;;;;;;;;5046687;28;20056;-63
2023/09/03 14:05:34;;;;;;;2.25;1.55;;;;;;;;;;5038669;28;20516;-59
2023/09/03 14:08:01;;;;;;;3.50;1.38;;;;;;;;;;5026699;28;20069;-62
2023/09/03 14:10:28;;;;;;;1.25;1.00;;;;;;;;;;5030086;28;20148;-61
2023/09/03 14:12:54;;;;;;;4.13;1.45;;;;;;;;;;5035635;28;20529;-59
2023/09/03 14:15:21;;;;;;;2.75;1.25;;;;;;;;;;5043551;28;20064;-62
2023/09/03 14:17:47;;;;;;;11.93;1.85;;;;;;;;;;5038029;28;20081;-62
2023/09/03 14:20:14;;;;;;;2.40;0.93;;;;;;;;;;5039081;28;20083;-60
2023/09/03 14:22:42;;;;;;;1.42;1.00;;;;;;;;;;5041870;28;20104;-62
2023/09/03 14:25:08;;;;;;;2.28;0.85;;;;;;;;;;5026964;28;20597;-62
2023/09/03 14:27:35;;;;;;;1.45;1.35;;;;;;;;;;5042449;28;20049;-61
2023/09/03 14:30:02;;;;;;;1.00;0.88;;;;;;;;;;5042760;28;20053;-60
2023/09/03 14:32:29;;;;;;;2.05;1.17;;;;;;;;;;5038284;28;20508;-62
2023/09/03 14:34:56;;;;;;;1.52;1.17;;;;;;;;;;5038822;28;20061;-61
2023/09/03 14:37:22;;;;;;;1.48;1.38;;;;;;;;;;5046556;28;20048;-62
2023/09/03 14:39:48;;;;;;;1.20;1.10;;;;;;;;;;5046310;28;20077;-65